Time;durP1;ratioP1;P1;durP2;ratioP2;P2;SDS_P1;SDS_P2;PMS_P1;PMS_P2;Temp;Humidity;BMP_temperature;BMP_pressure;BME280_temperature;BME280_humidity;BME280_pressure;Samples;Min_cycle;Max_cycle;Signal;HPM_P1;HPM_P2
2022/09/10 00:00:54;;;;;;;3.33;1.17;;;;;;;15.41;100.00;100199.28;5111269;28;20034;-76
2022/09/10 00:03:20;;;;;;;1.42;1.25;;;;;;;15.39;100.00;100196.13;5095456;28;20103;-77
2022/09/10 00:05:46;;;;;;;4.40;1.40;;;;;;;15.39;100.00;100193.25;5113836;28;20068;-76
2022/09/10 00:08:12;;;;;;;1.58;1.20;;;;;;;15.37;100.00;100202.41;5112634;28;20464;-79
2022/09/10 00:10:39;;;;;;;1.48;1.10;;;;;;;15.33;100.00;100195.34;5113589;28;20032;-76
2022/09/10 00:13:05;;;;;;;4.18;2.35;;;;;;;15.31;100.00;100198.78;5112593;28;20036;-77
2022/09/10 00:15:30;;;;;;;6.18;3.78;;;;;;;15.25;100.00;100190.16;5112218;28;20034;-77
2022/09/10 00:17:56;;;;;;;3.67;2.65;;;;;;;15.30;100.00;100185.69;5112364;28;20377;-77
2022/09/10 00:20:21;;;;;;;2.35;1.95;;;;;;;15.25;100.00;100193.03;5113779;28;20027;-77
2022/09/10 00:22:47;;;;;;;2.03;1.83;;;;;;;15.17;100.00;100180.50;5113674;28;20087;-76
2022/09/10 00:25:14;;;;;;;2.05;1.35;;;;;;;15.08;100.00;100186.53;5111948;28;20047;-77
2022/09/10 00:27:39;;;;;;;3.30;1.45;;;;;;;15.00;100.00;100184.75;5113623;28;20110;-75
2022/09/10 00:30:06;;;;;;;2.78;1.40;;;;;;;14.99;100.00;100186.03;5113467;28;20107;-79
2022/09/10 00:32:31;;;;;;;2.65;1.38;;;;;;;14.95;100.00;100176.91;5112162;28;20468;-77
2022/09/10 00:34:58;;;;;;;2.42;1.33;;;;;;;14.88;100.00;100171.69;5114598;28;20114;-77
2022/09/10 00:37:23;;;;;;;4.25;1.40;;;;;;;14.90;100.00;100163.31;5116028;28;20437;-78
2022/09/10 00:39:49;;;;;;;2.58;1.52;;;;;;;14.85;100.00;100167.78;5117115;28;20049;-77
2022/09/10 00:42:17;;;;;;;4.50;1.83;;;;;;;14.81;100.00;100155.75;5115878;28;20473;-77
2022/09/10 00:44:43;;;;;;;1.45;1.30;;;;;;;14.84;100.00;100149.72;5115528;28;20278;-78
2022/09/10 00:47:16;;;;;;;2.70;1.80;;;;;;;14.82;100.00;100157.31;5117026;28;20020;-75
2022/09/10 00:49:44;;;;;;;2.72;1.30;;;;;;;14.86;100.00;100154.97;5115799;28;20024;-77
2022/09/10 00:52:11;;;;;;;2.83;1.30;;;;;;;14.78;100.00;100142.41;5115586;28;20137;-77
2022/09/10 00:54:38;;;;;;;2.08;1.77;;;;;;;14.82;100.00;100145.81;5098643;28;20031;-76
2022/09/10 00:57:07;;;;;;;3.20;1.75;;;;;;;14.77;100.00;100135.09;5115299;28;20031;-76
2022/09/10 00:59:33;;;;;;;2.50;1.90;;;;;;;14.77;100.00;100133.00;5115686;28;20042;-76
2022/09/10 01:01:59;;;;;;;4.00;1.63;;;;;;;14.76;100.00;100124.91;5098345;28;20050;-75
2022/09/10 01:04:27;;;;;;;2.53;1.63;;;;;;;14.73;100.00;100118.09;5115424;28;20028;-75
2022/09/10 01:06:53;;;;;;;1.60;1.42;;;;;;;14.70;100.00;100110.53;5116604;28;20380;-75
2022/09/10 01:09:20;;;;;;;2.97;2.03;;;;;;;14.61;100.00;100098.53;5116518;28;20020;-76
2022/09/10 01:12:03;;;;;;;6.05;2.10;;;;;;;14.59;100.00;100101.13;5115179;28;20030;-76
2022/09/10 01:14:34;;;;;;;3.42;2.20;;;;;;;14.55;100.00;100092.75;5114945;28;20020;-76
2022/09/10 01:17:28;;;;;;;4.57;1.65;;;;;;;14.55;100.00;100084.13;5114275;28;20020;-76
2022/09/10 01:20:09;;;;;;;3.22;1.45;;;;;;;14.55;100.00;100083.34;5113960;28;20037;-76
2022/09/10 01:22:41;;;;;;;1.50;1.40;;;;;;;14.55;100.00;100081.25;5112952;28;20052;-75
2022/09/10 01:25:21;;;;;;;3.75;1.60;;;;;;;14.54;100.00;100076.81;5114296;28;20523;-77
2022/09/10 01:27:50;;;;;;;1.75;1.33;;;;;;;14.53;100.00;100089.59;5114636;27;20026;-76
2022/09/10 01:30:42;;;;;;;3.10;1.70;;;;;;;14.54;100.00;100073.16;5096327;28;20371;-75
2022/09/10 01:33:32;;;;;;;2.08;1.42;;;;;;;14.52;100.00;100067.16;5111711;28;20062;-77
2022/09/10 01:36:11;;;;;;;2.83;1.60;;;;;;;14.48;100.00;100073.16;5113046;28;20550;-76
2022/09/10 01:38:37;;;;;;;2.55;1.40;;;;;;;14.41;100.00;100070.81;5112506;28;20422;-76
2022/09/10 01:41:03;;;;;;;3.20;1.35;;;;;;;14.28;100.00;100064.84;5095538;28;20111;-76
2022/09/10 01:43:29;;;;;;;2.38;1.50;;;;;;;14.25;100.00;100058.03;5112411;28;20106;-75
2022/09/10 01:46:14;;;;;;;2.15;1.52;;;;;;;14.22;100.00;100043.94;5113532;28;20028;-77
2022/09/10 01:49:08;;;;;;;3.10;1.85;;;;;;;14.39;100.00;100059.84;5112370;28;20024;-75
2022/09/10 01:51:55;;;;;;;1.77;1.67;;;;;;;14.51;100.00;100056.94;5114322;28;20393;-76
2022/09/10 01:54:45;;;;;;;1.70;1.60;;;;;;;14.53;100.00;100060.09;5097468;28;20476;-76
2022/09/10 01:57:41;;;;;;;3.60;1.63;;;;;;;14.50;100.00;100061.13;5097271;28;20092;-77
2022/09/10 02:00:08;;;;;;;2.35;1.70;;;;;;;14.51;100.00;100056.94;5114273;28;20024;-77
2022/09/10 02:03:06;;;;;;;1.73;1.60;;;;;;;14.51;100.00;100059.84;5097195;28;20544;-77
2022/09/10 02:05:34;;;;;;;7.38;2.00;;;;;;;14.49;100.00;100059.56;5114330;28;20026;-75
2022/09/10 02:08:04;;;;;;;6.18;2.00;;;;;;;14.41;100.00;100063.00;5114000;28;20024;-76
2022/09/10 02:10:29;;;;;;;8.48;1.90;;;;;;;14.48;100.00;100055.91;5097135;28;20111;-76
2022/09/10 02:12:55;;;;;;;2.28;1.75;;;;;;;14.47;100.00;100056.44;5115548;28;20054;-77
2022/09/10 02:15:23;;;;;;;3.08;1.90;;;;;;;14.51;100.00;100051.19;5114075;28;20399;-77
2022/09/10 02:17:49;;;;;;;3.25;1.45;;;;;;;14.52;100.00;100052.78;5114037;28;20051;-77
2022/09/10 02:20:14;;;;;;;2.22;1.92;;;;;;;14.54;100.00;100050.13;5113951;28;20031;-76
2022/09/10 02:22:47;;;;;;;3.10;2.05;;;;;;;14.52;100.00;100047.03;5096785;28;20108;-77
2022/09/10 02:25:13;;;;;;;2.28;1.98;;;;;;;14.50;100.00;100046.75;5113813;28;20059;-77
2022/09/10 02:27:38;;;;;;;3.72;2.00;;;;;;;14.45;100.00;100036.84;5115133;28;20032;-77
2022/09/10 02:30:05;;;;;;;3.03;1.70;;;;;;;14.43;100.00;100045.97;5113641;28;20027;-76
2022/09/10 02:32:31;;;;;;;4.93;1.95;;;;;;;14.40;100.00;100029.00;5115085;28;20047;-76
2022/09/10 02:34:57;;;;;;;3.58;1.75;;;;;;;14.38;100.00;100031.63;5114791;28;20383;-77
2022/09/10 02:37:23;;;;;;;2.88;1.90;;;;;;;14.31;100.00;100024.34;5114957;28;20036;-75
2022/09/10 02:39:48;;;;;;;3.80;1.83;;;;;;;14.31;100.00;100023.53;5114958;28;20027;-77
2022/09/10 02:42:15;;;;;;;4.45;2.20;;;;;;;14.29;100.00;100018.31;5113678;28;20035;-76
2022/09/10 02:44:41;;;;;;;3.03;1.85;;;;;;;14.31;100.00;100026.41;5096716;28;20069;-76
2022/09/10 02:47:06;;;;;;;3.35;2.20;;;;;;;14.27;100.00;100026.69;5114646;27;20019;-76
2022/09/10 02:49:33;;;;;;;3.28;2.10;;;;;;;14.28;100.00;100028.25;5113415;28;20106;-76
2022/09/10 02:51:59;;;;;;;3.85;2.10;;;;;;;14.19;100.00;100031.41;5113258;28;20463;-77
2022/09/10 02:54:25;;;;;;;3.45;1.95;;;;;;;14.36;100.00;100025.63;5096244;28;20023;-77
2022/09/10 02:56:50;;;;;;;3.85;2.10;;;;;;;14.39;100.00;100021.69;5114429;28;20102;-76
2022/09/10 02:59:16;;;;;;;3.00;2.03;;;;;;;14.34;100.00;100020.41;5113964;28;20023;-77
2022/09/10 03:01:42;;;;;;;3.10;2.08;;;;;;;14.33;100.00;100018.81;5113116;28;20027;-76
2022/09/10 03:04:07;;;;;;;4.03;2.25;;;;;;;14.32;100.00;100017.28;5114313;28;20111;-75
2022/09/10 03:06:33;;;;;;;2.83;1.75;;;;;;;14.33;100.00;100015.19;5114396;28;20031;-76
2022/09/10 03:08:58;;;;;;;4.18;2.08;;;;;;;14.32;100.00;100016.50;5114312;28;20156;-77
2022/09/10 03:11:26;;;;;;;5.28;2.08;;;;;;;14.29;100.00;100012.56;5112936;28;20533;-77
2022/09/10 03:13:51;;;;;;;6.35;2.45;;;;;;;14.27;100.00;100012.31;5096264;28;20038;-76
2022/09/10 03:16:17;;;;;;;5.30;2.28;;;;;;;14.30;100.00;100010.47;5112835;28;20027;-76
2022/09/10 03:18:43;;;;;;;3.45;2.40;;;;;;;14.36;100.00;100017.78;5114000;28;20039;-76
2022/09/10 03:21:20;;;;;;;2.30;2.10;;;;;;;14.20;100.00;100012.84;5095852;28;20535;-77
2022/09/10 03:23:48;;;;;;;7.00;2.20;;;;;;;14.24;100.00;100012.56;5114450;28;20113;-76
2022/09/10 03:26:14;;;;;;;2.78;1.80;;;;;;;14.29;100.00;100023.28;5095695;28;20054;-78
2022/09/10 03:28:42;;;;;;;3.28;1.83;;;;;;;14.25;100.00;100014.94;5114011;28;20054;-76
2022/09/10 03:31:07;;;;;;;3.00;1.83;;;;;;;14.17;100.00;100013.91;5112634;28;20039;-77
2022/09/10 03:33:34;;;;;;;2.05;1.88;;;;;;;14.19;100.00;100013.38;5095676;28;20433;-76
2022/09/10 03:36:00;;;;;;;3.88;1.85;;;;;;;14.31;100.00;100020.66;5114082;28;20016;-76
2022/09/10 03:38:26;;;;;;;2.70;1.92;;;;;;;14.23;100.00;100014.66;5114088;28;20469;-77
2022/09/10 03:40:52;;;;;;;3.42;2.00;;;;;;;14.33;100.00;100021.69;5112613;28;20066;-77
2022/09/10 03:43:19;;;;;;;3.08;2.53;;;;;;;14.29;100.00;100024.06;5113846;28;20049;-78
2022/09/10 03:45:47;;;;;;;4.40;1.85;;;;;;;14.33;100.00;100024.56;5113786;28;20023;-76
2022/09/10 03:48:14;;;;;;;2.20;1.98;;;;;;;14.34;100.00;100029.03;5113959;28;20027;-76
2022/09/10 03:50:39;;;;;;;3.17;1.95;;;;;;;14.35;100.00;100029.81;5113941;28;20084;-76
2022/09/10 03:53:04;;;;;;;4.20;2.35;;;;;;;14.24;100.00;100029.81;5114095;28;20027;-76
2022/09/10 03:55:30;;;;;;;3.55;2.40;;;;;;;14.20;100.00;100020.69;5112465;28;20020;-75
2022/09/10 03:57:57;;;;;;;3.80;2.17;;;;;;;14.15;100.00;100018.59;5113707;28;20055;-76
2022/09/10 04:00:22;;;;;;;3.80;2.47;;;;;;;14.13;100.00;100006.88;5112269;28;20461;-77
2022/09/10 04:02:47;;;;;;;3.45;2.20;;;;;;;14.16;100.00;99997.97;5113598;28;20024;-77
2022/09/10 04:05:13;;;;;;;2.50;2.20;;;;;;;14.17;100.00;100010.25;5113972;28;20031;-76
2022/09/10 04:07:38;;;;;;;3.95;2.00;;;;;;;14.29;100.00;100003.94;5112558;28;20015;-76
2022/09/10 04:10:04;;;;;;;3.13;2.40;;;;;;;14.38;100.00;100006.53;5114996;28;20067;-76
2022/09/10 04:12:30;;;;;;;5.05;2.17;;;;;;;14.48;100.00;100004.16;5117870;28;20016;-78
2022/09/10 04:14:55;;;;;;;3.83;2.42;;;;;;;14.35;100.00;100004.72;5116354;28;20024;-76
2022/09/10 04:17:21;;;;;;;5.85;2.50;;;;;;;14.22;100.00;100000.84;5116203;28;20019;-77
2022/09/10 04:19:46;;;;;;;3.08;2.08;;;;;;;14.29;100.00;100000.28;5117505;28;20107;-76
2022/09/10 04:22:11;;;;;;;3.65;2.38;;;;;;;14.29;100.00;100003.94;5116189;28;20110;-76
2022/09/10 04:24:37;;;;;;;2.70;2.50;;;;;;;14.30;100.00;100001.84;5117272;27;20071;-77
2022/09/10 04:27:02;;;;;;;3.03;2.38;;;;;;;14.29;100.00;100003.16;5116116;28;20012;-77
2022/09/10 04:29:28;;;;;;;8.43;3.13;;;;;;;14.39;100.00;100010.19;5116082;28;20032;-76
2022/09/10 04:31:54;;;;;;;3.58;2.63;;;;;;;14.43;100.00;100013.56;5115960;28;20445;-78
2022/09/10 04:34:21;;;;;;;4.38;2.60;;;;;;;14.41;100.00;100022.75;5116040;28;20023;-76
2022/09/10 04:36:47;;;;;;;3.00;2.45;;;;;;;14.42;100.00;100017.78;5115691;28;20499;-76
2022/09/10 04:39:13;;;;;;;4.57;2.50;;;;;;;14.45;100.00;100013.06;5117506;28;20019;-76
2022/09/10 04:41:38;;;;;;;3.38;2.60;;;;;;;14.46;100.00;100009.66;5117169;28;20095;-75
2022/09/10 04:44:04;;;;;;;4.13;2.58;;;;;;;14.51;100.00;100022.44;5115553;28;20494;-75
2022/09/10 04:46:29;;;;;;;6.82;2.50;;;;;;;14.55;100.00;100020.88;5098579;28;20525;-76
2022/09/10 04:48:55;;;;;;;3.40;2.40;;;;;;;14.53;100.00;100023.47;5116796;28;20051;-75
2022/09/10 04:51:21;;;;;;;6.00;2.55;;;;;;;14.54;100.00;100030.78;5116858;28;20019;-75
2022/09/10 04:53:51;;;;;;;3.05;2.35;;;;;;;14.52;100.00;100024.81;5115727;28;20072;-75
2022/09/10 04:56:17;;;;;;;2.78;1.80;;;;;;;14.58;100.00;100036.25;5115401;28;20055;-75
2022/09/10 04:58:43;;;;;;;2.65;1.88;;;;;;;14.66;100.00;100026.63;5116700;28;20031;-75
2022/09/10 05:01:10;;;;;;;3.95;1.52;;;;;;;14.64;100.00;100022.69;5117172;28;20118;-75
2022/09/10 05:03:37;;;;;;;3.50;2.00;;;;;;;14.70;100.00;100029.22;5115518;28;20092;-75
2022/09/10 05:06:04;;;;;;;9.63;2.10;;;;;;;14.72;100.00;100027.38;5098384;28;20034;-76
2022/09/10 05:08:38;;;;;;;2.47;1.70;;;;;;;14.77;100.00;100020.03;5098314;28;20106;-76
2022/09/10 05:11:04;;;;;;;2.22;1.60;;;;;;;14.79;100.00;100023.94;5098165;28;20030;-75
2022/09/10 05:13:30;;;;;;;2.95;1.90;;;;;;;14.85;100.00;100026.78;5115080;28;20028;-75
2022/09/10 05:15:58;;;;;;;3.00;1.52;;;;;;;15.02;100.00;100032.47;5116641;28;20024;-76
2022/09/10 05:18:27;;;;;;;3.08;1.35;;;;;;;15.20;100.00;100043.38;5098192;28;20050;-74
2022/09/10 05:20:53;;;;;;;2.42;1.75;;;;;;;15.27;100.00;100037.03;5115772;28;20521;-75
2022/09/10 05:23:19;;;;;;;2.45;1.40;;;;;;;15.34;100.00;100036.47;5116310;28;20108;-75
2022/09/10 05:25:46;;;;;;;1.52;1.42;;;;;;;15.42;100.00;100040.34;5115828;27;20043;-75
2022/09/10 05:28:14;;;;;;;4.50;1.48;;;;;;;15.41;100.00;100046.66;5116383;28;20042;-75
2022/09/10 05:30:40;;;;;;;2.78;1.48;;;;;;;15.37;100.00;100049.00;5116249;28;20031;-76
2022/09/10 05:33:06;;;;;;;2.47;1.60;;;;;;;15.33;100.00;100054.28;5114829;28;20084;-75
2022/09/10 05:35:34;;;;;;;2.30;1.30;;;;;;;15.39;100.00;100052.16;5115927;28;20023;-74
2022/09/10 05:37:59;;;;;;;3.80;1.65;;;;;;;15.46;100.00;100042.97;5116184;28;20020;-75
2022/09/10 05:40:27;;;;;;;2.97;1.40;;;;;;;15.54;100.00;100044.72;5115818;28;20027;-76
2022/09/10 05:42:53;;;;;;;2.78;1.20;;;;;;;15.57;100.00;100049.41;5116374;28;20024;-75
2022/09/10 05:45:22;;;;;;;1.95;1.33;;;;;;;15.75;100.00;100042.25;5097500;28;20031;-75
2022/09/10 05:47:48;;;;;;;1.45;1.27;;;;;;;15.69;100.00;100027.88;5097856;28;20028;-76
2022/09/10 05:50:13;;;;;;;2.00;1.23;;;;;;;15.74;100.00;100034.94;5097650;28;20028;-77
2022/09/10 05:52:39;;;;;;;1.95;1.67;;;;;;;15.83;100.00;100042.44;5114944;28;20046;-76
2022/09/10 05:55:05;;;;;;;2.38;1.25;;;;;;;15.82;100.00;100035.91;5113579;28;20100;-75
2022/09/10 05:57:39;;;;;;;5.18;1.30;;;;;;;15.78;100.00;100051.91;5114730;28;20058;-77
2022/09/10 06:00:09;;;;;;;2.08;1.15;;;;;;;15.77;100.00;100053.22;5114925;28;20111;-75
2022/09/10 06:02:36;;;;;;;2.30;0.95;;;;;;;15.68;100.00;100060.88;5116284;28;20023;-78
2022/09/10 06:05:01;;;;;;;3.75;1.25;;;;;;;15.61;100.00;100060.69;5114578;28;20034;-80
2022/09/10 06:07:27;;;;;;;2.58;1.48;;;;;;;15.54;100.00;100056.25;5097413;28;20376;-79
2022/09/10 06:09:59;;;;;;;1.40;1.30;;;;;;;15.55;100.00;100054.94;5097275;28;20035;-78
2022/09/10 06:12:25;;;;;;;;;;;;;;;15.64;100.00;100059.63;5097299;28;20036;-77
2022/09/10 06:14:53;;;;;;;11.02;2.00;;;;;;;15.58;100.00;100055.94;5111985;28;19908;-75
2022/09/10 06:17:19;;;;;;;2.03;1.10;;;;;;;15.51;100.00;100056.53;5113767;28;20027;-76
2022/09/10 06:19:45;;;;;;;3.75;1.30;;;;;;;15.51;100.00;100060.22;5096741;28;20475;-75
2022/09/10 06:22:13;;;;;;;2.97;1.40;;;;;;;15.67;100.00;100052.78;5096799;28;20022;-76
2022/09/10 06:24:40;;;;;;;1.92;1.00;;;;;;;15.85;100.00;100057.09;5078686;28;20124;-75
2022/09/10 06:27:06;;;;;;;4.18;1.40;;;;;;;16.08;100.00;100049.81;5115331;28;20076;-76
2022/09/10 06:29:35;;;;;;;2.88;1.23;;;;;;;16.30;100.00;100048.84;5113620;28;20023;-73
2022/09/10 06:32:02;;;;;;;3.42;1.40;;;;;;;16.38;100.00;100049.81;5112322;28;20031;-73
2022/09/10 06:34:36;;;;;;;4.20;1.30;;;;;;;16.51;100.00;100050.69;5113344;28;20055;-73
2022/09/10 06:37:05;;;;;;;2.10;1.67;;;;;;;17.30;100.00;100042.66;5115267;28;20058;-74
2022/09/10 06:39:30;;;;;;;2.08;0.95;;;;;;;19.11;100.00;100057.94;5114886;28;20020;-73
2022/09/10 06:41:57;;;;;;;3.20;1.10;;;;;;;21.52;100.00;100051.19;5113921;28;20096;-74
2022/09/10 06:44:22;;;;;;;1.85;0.70;;;;;;;23.86;100.00;100046.47;5115004;28;20030;-76
2022/09/10 06:46:56;;;;;;;3.53;1.20;;;;;;;26.06;95.44;100052.19;5114666;28;20028;-76
2022/09/10 06:49:23;;;;;;;3.72;1.30;;;;;;;27.91;85.34;100042.47;5095605;28;20039;-76
2022/09/10 06:51:49;;;;;;;4.10;1.23;;;;;;;29.26;75.76;100042.56;5113370;28;20034;-75
2022/09/10 06:54:15;;;;;;;4.25;1.05;;;;;;;30.22;63.69;100052.63;5095178;28;20027;-76
2022/09/10 06:56:41;;;;;;;4.15;1.10;;;;;;;29.51;60.95;100058.94;5095045;28;20413;-77
2022/09/10 06:59:08;;;;;;;7.55;2.83;;;;;;;27.63;58.06;100060.91;5077731;28;20518;-76
2022/09/10 07:01:36;;;;;;;2.78;1.00;;;;;;;26.81;67.96;100053.16;5078152;28;20341;-76
2022/09/10 07:04:05;;;;;;;3.63;0.73;;;;;;;28.43;65.75;100056.53;5112414;28;20046;-77
2022/09/10 07:06:32;;;;;;;6.90;1.55;;;;;;;29.25;59.21;100060.84;5114617;28;20011;-75
2022/09/10 07:08:58;;;;;;;0.95;0.80;;;;;;;30.83;57.10;100062.41;5096109;28;20011;-77
2022/09/10 07:11:25;;;;;;;0.50;0.50;;;;;;;31.02;49.36;100067.22;5096256;28;20026;-76
2022/09/10 07:13:52;;;;;;;3.30;1.48;;;;;;;32.25;49.25;100066.50;5062494;28;20035;-75
2022/09/10 07:16:28;;;;;;;3.40;1.30;;;;;;;32.78;38.60;100083.47;5079000;28;20027;-78
2022/09/10 07:18:59;;;;;;;4.43;0.93;;;;;;;33.45;40.09;100082.66;5096201;28;20071;-78
2022/09/10 07:21:27;;;;;;;3.63;1.08;;;;;;;32.78;43.33;100078.34;5079422;28;20088;-76
2022/09/10 07:24:04;;;;;;;3.65;1.00;;;;;;;31.41;43.36;100074.84;5079050;28;20089;-79
2022/09/10 07:26:32;;;;;;;2.47;0.90;;;;;;;30.73;47.08;100059.59;5055498;28;20607;-76
2022/09/10 07:28:59;;;;;;;0.50;0.50;;;;;;;30.87;46.70;100074.44;5072088;28;20032;-77
2022/09/10 07:31:32;;;;;;;5.35;0.93;;;;;;;32.53;45.82;100072.47;5055676;28;20044;-76
2022/09/10 07:34:07;;;;;;;1.30;0.60;;;;;;;32.95;38.54;100074.81;5072483;28;20032;-76
2022/09/10 07:36:33;;;;;;;0.85;0.60;;;;;;;34.20;38.43;100077.56;5072103;28;20028;-78
2022/09/10 07:39:00;;;;;;;3.42;0.75;;;;;;;34.45;36.98;100082.47;5071762;28;20101;-76
2022/09/10 07:41:32;;;;;;;3.25;0.90;;;;;;;34.96;37.41;100070.75;5073518;28;20063;-74
2022/09/10 07:43:58;;;;;;;0.73;0.60;;;;;;;35.74;36.08;100074.97;5073559;28;20087;-76
2022/09/10 07:46:27;;;;;;;1.25;0.77;;;;;;;36.56;36.08;100076.84;5073618;28;20040;-75
2022/09/10 07:48:55;;;;;;;2.00;0.70;;;;;;;36.70;31.25;100083.34;5073431;28;20028;-78
2022/09/10 07:51:22;;;;;;;1.50;1.00;;;;;;;36.31;33.22;100092.94;5072088;28;20036;-80
2022/09/10 07:53:56;;;;;;;1.15;0.88;;;;;;;36.70;32.99;100086.31;5038747;28;20086;-75
2022/09/10 07:56:24;;;;;;;1.45;0.73;;;;;;;35.90;33.37;100090.50;5072266;28;20465;-77
2022/09/10 07:58:50;;;;;;;2.30;0.82;;;;;;;34.24;35.08;100092.59;5072090;28;20032;-76
2022/09/10 08:01:18;;;;;;;2.33;1.10;;;;;;;35.12;35.48;100089.34;5055576;28;20027;-79
2022/09/10 08:03:45;;;;;;;1.38;0.82;;;;;;;35.10;35.44;100079.59;5039209;28;20060;-77
2022/09/10 08:06:11;;;;;;;2.72;0.90;;;;;;;35.34;36.71;100076.94;5038650;28;20470;-76
2022/09/10 08:08:38;;;;;;;2.22;0.80;;;;;;;35.86;34.49;100070.28;5055517;28;20115;-81
2022/09/10 08:11:12;;;;;;;3.08;0.85;;;;;;;35.21;33.15;100087.50;5055489;28;20033;-77
2022/09/10 08:13:40;;;;;;;1.08;0.98;;;;;;;33.83;35.38;100083.88;5055146;28;20040;-77
2022/09/10 08:16:09;;;;;;;1.40;0.70;;;;;;;32.13;35.84;100080.59;5071870;28;20094;-78
2022/09/10 08:18:36;;;;;;;2.08;0.70;;;;;;;31.08;39.62;100070.56;5055251;28;20481;-77
2022/09/10 08:21:04;;;;;;;2.45;1.13;;;;;;;29.91;44.78;100070.50;5055182;28;20020;-76
2022/09/10 08:23:49;;;;;;;1.33;0.82;;;;;;;28.75;45.94;100070.59;5071836;28;20060;-76
2022/09/10 08:26:15;;;;;;;4.60;0.93;;;;;;;27.70;49.37;100062.88;5091257;28;20052;-78
2022/09/10 08:28:47;;;;;;;3.50;0.70;;;;;;;27.29;51.71;100058.28;5093473;28;20075;-77
2022/09/10 08:31:13;;;;;;;2.90;0.88;;;;;;;28.36;50.28;100066.28;5075285;28;20476;-77
2022/09/10 08:33:39;;;;;;;2.30;0.75;;;;;;;29.15;45.59;100066.03;5092056;28;20024;-75
2022/09/10 08:36:15;;;;;;;3.65;0.90;;;;;;;30.48;44.25;100056.47;5092401;28;20039;-79
2022/09/10 08:38:42;;;;;;;5.13;0.98;;;;;;;31.67;40.74;100066.03;5093294;28;20055;-77
2022/09/10 08:41:37;;;;;;;2.15;0.77;;;;;;;31.51;37.06;100062.88;5091393;28;20384;-77
2022/09/10 08:44:03;;;;;;;2.67;0.80;;;;;;;32.19;36.15;100063.19;5093307;28;20028;-76
2022/09/10 08:46:33;;;;;;;3.08;0.80;;;;;;;32.64;34.68;100069.41;5093329;28;20103;-74
2022/09/10 08:49:12;;;;;;;1.70;1.48;;;;;;;32.22;34.94;100072.97;5075139;28;20039;-75
2022/09/10 08:52:16;;;;;;;3.78;1.40;;;;;;;30.92;37.03;100068.16;5092080;28;20030;-75
2022/09/10 08:55:12;;;;;;;3.97;1.80;;;;;;;30.24;37.62;100067.50;5010384;28;20048;-75
2022/09/10 08:57:48;;;;;;;1.25;0.60;;;;;;;30.53;36.45;100062.00;5088438;28;20051;-73
2022/09/10 09:00:20;;;;;;;3.47;1.52;;;;;;;29.46;37.98;100069.66;5079455;28;20128;-77
2022/09/10 09:03:34;;;;;;;2.70;1.10;;;;;;;29.76;38.25;100062.13;5078741;28;20035;-76
2022/09/10 09:06:04;;;;;;;2.53;2.10;;;;;;;29.34;37.92;100071.00;5007094;28;20061;-75
2022/09/10 09:08:51;;;;;;;3.75;1.38;;;;;;;30.01;39.26;100068.22;5095300;28;20492;-79
2022/09/10 09:11:29;;;;;;;27.45;3.55;;;;;;;30.58;38.91;100060.06;5075015;28;20036;-75
2022/09/10 09:14:00;;;;;;;5.35;1.70;;;;;;;30.40;37.62;100058.94;5078331;28;20123;-76
2022/09/10 09:16:45;;;;;;;3.92;1.42;;;;;;;29.39;39.30;100066.91;5096485;28;20032;-77
2022/09/10 09:19:21;;;;;;;3.50;1.35;;;;;;;29.75;38.16;100069.41;5096429;28;20366;-78
2022/09/10 09:21:53;;;;;;;1.65;0.75;;;;;;;29.68;39.70;100070.41;5096586;28;20028;-76
2022/09/10 09:24:38;;;;;;;4.57;1.10;;;;;;;29.85;39.00;100064.19;5098129;28;20055;-77
2022/09/10 09:27:08;;;;;;;2.92;0.85;;;;;;;30.14;38.89;100066.84;5098790;28;20024;-77
2022/09/10 09:29:51;;;;;;;5.70;1.50;;;;;;;30.21;37.75;100062.91;5082017;28;20066;-77
2022/09/10 09:32:18;;;;;;;9.13;1.70;;;;;;;30.60;38.72;100063.16;5098029;28;20122;-79
2022/09/10 09:34:54;;;;;;;4.40;1.70;;;;;;;30.59;37.46;100061.63;5098418;28;20060;-77
2022/09/10 09:37:30;;;;;;;2.40;1.60;;;;;;;30.13;38.47;100060.19;5065525;28;20035;-79
2022/09/10 09:40:06;;;;;;;4.18;1.30;;;;;;;29.43;39.54;100065.03;5081151;28;20057;-79
2022/09/10 09:42:52;;;;;;;5.72;1.50;;;;;;;28.56;42.01;100061.91;5096507;28;20114;-79
2022/09/10 09:45:23;;;;;;;3.00;1.00;;;;;;;27.91;43.60;100057.16;5095701;28;20030;-79
2022/09/10 09:47:49;;;;;;;1.48;1.00;;;;;;;27.74;44.43;100054.41;5078988;28;20114;-78
2022/09/10 09:50:17;;;;;;;5.68;1.40;;;;;;;27.78;44.68;100045.88;5095686;28;20038;-79
2022/09/10 09:52:43;;;;;;;2.30;1.10;;;;;;;27.57;49.05;100045.75;5095869;28;20034;-79
2022/09/10 09:55:32;;;;;;;3.72;1.60;;;;;;;27.51;46.88;100046.06;5078591;28;20031;-79
2022/09/10 09:58:19;;;;;;;3.55;1.10;;;;;;;27.97;47.92;100042.16;5096679;28;20072;-79
2022/09/10 10:00:46;;;;;;;6.10;1.65;;;;;;;28.29;47.78;100034.94;5113871;28;20088;-79
2022/09/10 10:03:24;;;;;;;4.55;1.35;;;;;;;28.42;45.95;100049.88;5078355;28;20029;-79
2022/09/10 10:05:50;;;;;;;9.68;1.23;;;;;;;28.15;42.90;100052.28;5078324;28;20015;-80
2022/09/10 10:08:43;;;;;;;1.38;1.23;;;;;;;28.12;44.54;100043.97;5078151;28;20111;-80
2022/09/10 10:11:12;;;;;;;2.88;1.45;;;;;;;28.05;45.16;100033.91;5078081;28;20031;-80
2022/09/10 10:13:40;;;;;;;3.17;1.23;;;;;;;28.15;43.98;100037.59;5095203;28;20019;-80
2022/09/10 10:16:13;;;;;;;2.22;1.02;;;;;;;28.11;44.96;100033.59;5079977;28;20377;-79
2022/09/10 10:18:41;;;;;;;2.35;1.45;;;;;;;27.61;45.64;100020.41;5115847;28;20027;-79
2022/09/10 10:21:28;;;;;;;3.88;1.40;;;;;;;27.30;47.14;100025.38;5080380;28;20028;-79
2022/09/10 10:23:53;;;;;;;2.20;1.30;;;;;;;26.95;48.63;100018.28;5115143;28;20564;-78
2022/09/10 10:26:22;;;;;;;2.80;1.10;;;;;;;26.85;49.04;100012.41;5079852;28;20063;-79
2022/09/10 10:28:49;;;;;;;1.75;1.35;;;;;;;26.68;49.28;100009.56;5115375;28;20062;-79
2022/09/10 10:31:15;;;;;;;2.13;1.15;;;;;;;26.53;49.66;100003.97;5096787;28;20468;-79
2022/09/10 10:33:49;;;;;;;2.15;0.80;;;;;;;26.36;51.44;99998.22;5115079;28;20020;-79
2022/09/10 10:36:21;;;;;;;3.53;1.02;;;;;;;26.02;55.35;99994.06;5114979;28;20036;-79
2022/09/10 10:38:57;;;;;;;3.03;0.93;;;;;;;25.71;56.89;99998.84;5097063;28;20038;-79
2022/09/10 10:41:38;;;;;;;3.15;1.40;;;;;;;25.72;55.32;99992.38;5096930;28;20027;-81
2022/09/10 10:44:25;;;;;;;1.20;0.90;;;;;;;25.63;55.63;99986.47;5114977;28;20035;-79
2022/09/10 10:47:15;;;;;;;2.83;1.13;;;;;;;25.56;55.23;99991.06;5114848;28;20115;-79
2022/09/10 10:50:05;;;;;;;2.30;1.27;;;;;;;25.67;58.57;99987.59;5114748;28;20037;-80
2022/09/10 10:52:34;;;;;;;1.30;0.82;;;;;;;25.54;56.54;99985.03;5096477;28;20098;-79
2022/09/10 10:55:08;;;;;;;2.70;1.00;;;;;;;25.35;55.25;99991.50;5114612;28;20153;-79
2022/09/10 10:58:11;;;;;;;4.15;1.08;;;;;;;25.09;55.69;99988.53;5096414;28;20032;-79
2022/09/10 11:00:43;;;;;;;2.05;1.33;;;;;;;24.87;56.15;99990.34;5114846;28;20384;-79
2022/09/10 11:03:17;;;;;;;2.88;1.20;;;;;;;24.73;57.75;99977.41;5096342;28;20024;-79
2022/09/10 11:05:48;;;;;;;2.30;0.80;;;;;;;23.98;59.24;99967.97;5114759;28;20039;-79
2022/09/10 11:08:22;;;;;;;2.15;0.80;;;;;;;23.89;59.19;99968.63;5079453;28;20449;-79
2022/09/10 11:11:01;;;;;;;2.22;0.75;;;;;;;24.05;60.35;99973.00;5079414;28;20073;-79
2022/09/10 11:13:49;;;;;;;1.33;0.93;;;;;;;24.19;60.63;99962.53;5096336;28;20101;-79
2022/09/10 11:16:37;;;;;;;2.30;0.98;;;;;;;24.23;62.02;99965.84;5096173;28;20059;-79
2022/09/10 11:19:16;;;;;;;1.83;0.90;;;;;;;24.21;62.19;99968.53;5078939;28;20122;-79
2022/09/10 11:21:54;;;;;;;2.70;1.00;;;;;;;24.46;62.47;99963.47;5096176;28;20027;-80
2022/09/10 11:24:40;;;;;;;2.92;0.80;;;;;;;24.29;60.60;99966.38;5078802;28;20146;-80
2022/09/10 11:27:12;;;;;;;2.55;0.82;;;;;;;24.27;60.75;99954.50;5079047;28;20388;-80
2022/09/10 11:29:57;;;;;;;3.22;1.00;;;;;;;24.09;61.34;99967.50;5095974;28;20118;-80
2022/09/10 11:32:38;;;;;;;2.75;0.82;;;;;;;24.18;57.77;99969.75;5113946;28;20115;-79
2022/09/10 11:35:21;;;;;;;3.10;0.80;;;;;;;24.18;55.90;99963.91;5114385;28;20032;-79
2022/09/10 11:38:06;;;;;;;1.10;0.60;;;;;;;23.99;56.59;99952.00;5078802;28;20024;-80